Nearby METAR Reports

 

KMTN - Baltimore/Martin, Maryland, USA
Distance from station: SSE 8mi, 13km
Updated: Sat, 20-Dec-2014 6:50pm EST
Clear
Clear
 Wind from calm
Wind: Calm
Temperature: 34°F , 1°C
Dew Point: 27°F , -3°C
Humidity: 75%
Barometer: 30.32 inHg , 1026.8 hPa
Clouds: Clear
Visibility: 10 miles , 16 km
2014/12/20 23:50 KMTN 202350Z 00000KT 10SM SKC 01/M03 A3032
KDMH - Baltimore/Dwntwn, Maryland, USA
Distance from station: SW 12mi, 19km
Updated: Sat, 20-Dec-2014 6:54pm EST

 
Temperature: 36°F , 2°C
Dew Point: 21°F , -6°C
Humidity: 56%
Barometer: 30.31 inHg , 1026.4 hPa
2014/12/20 23:54 KDMH 202354Z AUTO 02/M06 A3031 RMK AO1 SLP262 T00221056 10039 20022 53015
 
KBWI - Balto/Wash Intl, Maryland, USA
Distance from station: SSW 20mi, 33km
Updated: Sat, 20-Dec-2014 6:54pm EST
Overcast
Overcast
 Wind from calm
Wind: Calm
Temperature: 34°F , 1°C
Dew Point: 23°F , -5°C
Humidity: 65%
Barometer: 30.30 inHg , 1026.1 hPa
Clouds: Overcast
Visibility: 10 miles , 16 km
Cloud details: Few Clouds 3200 ft
Overcast 11000 ft
2014/12/20 23:54 KBWI 202354Z 00000KT 10SM FEW032 OVC110 01/M05 A3030 RMK AO2 SLP261 T00111050 10033 20006 53013
KDMW - Carroll Cnty, Maryland, USA
Distance from station: WNW 30mi, 48km
Updated: Sat, 20-Dec-2014 7:15pm EST
Overcast
Overcast
 Wind from calm
Wind: Calm
Temperature: 30°F , -1°C
Dew Point: 21°F , -6°C
Humidity: 69%
Barometer: 30.27 inHg , 1025.1 hPa
Clouds: Overcast
Visibility: 10 miles , 16 km
Cloud details: Overcast 11000 ft
2014/12/21 00:15 KDMW 210015Z AUTO 00000KT 10SM OVC110 M01/M06 A3027 RMK AO2
 
KNAK - Annapolis/Naval, Maryland, USA
Distance from station: S 30mi, 48km
Updated: Sat, 20-Dec-2014 6:54pm EST
Overcast
Overcast
 Wind from calm
Wind: Calm
Temperature: 36°F , 2°C
Dew Point: 25°F , -4°C
Humidity: 65%
Barometer: 30.31 inHg , 1026.4 hPa
Clouds: Overcast
Visibility: 10 miles , 16 km
Cloud details: Overcast 10000 ft
2014/12/20 23:54 KNAK 202354Z AUTO 00000KT 10SM OVC100 02/M04 A3031 RMK AO2 SLP265 T00171044 10039 20011 53010
KW29 - Stevensville, Maryland, USA
Distance from station: SSE 31mi, 50km
Updated: Sat, 20-Dec-2014 7:16pm EST

 Wind from calm
Wind: Calm
Temperature: 32°F , 0°C
Dew Point: 25°F , -4°C
Humidity: 75%
Barometer: 30.31 inHg , 1026.4 hPa
Visibility: 10 miles , 16 km
2014/12/21 00:16 KW29 210016Z AUTO 00000KT 10SM 00/M04 A3031 RMK AO1
 
KCGS - College Park, Maryland, USA
Distance from station: SW 38mi, 61km
Updated: Sat, 20-Dec-2014 7:15pm EST
Overcast
Overcast
 Wind from NW
Wind: NW 5 mph , 7 km/h
Temperature: 36°F , 2°C
Wind Chill: 32°F , 0°C
Dew Point: 23°F , -5°C
Humidity: 60%
Barometer: 30.29 inHg , 1025.7 hPa
Clouds: Overcast
Visibility: 10 miles , 16 km
Cloud details: Overcast 9000 ft
2014/12/21 00:15 KCGS 210015Z AUTO 32004KT 10SM OVC090 02/M05 A3029 RMK AO1
KGAI - Gaithersburg, Maryland, USA
Distance from station: WSW 40mi, 65km
Updated: Sat, 20-Dec-2014 7:15pm EST
Overcast
Overcast
 Wind from calm
Wind: Calm
Temperature: 34°F , 1°C
Dew Point: 21°F , -6°C
Humidity: 60%
Barometer: 30.31 inHg , 1026.4 hPa
Clouds: Overcast
Visibility: 10 miles , 16 km
Cloud details: Overcast 9000 ft
2014/12/21 00:15 KGAI 210015Z 00000KT 10SM OVC090 01/M06 A3031 RMK AO1
 
KTHV - York, Pennsylvania, USA
Distance from station: NNW 40mi, 65km
Updated: Sat, 20-Dec-2014 6:53pm EST
Mostly cloudy
Mostly cloudy
 Wind from W
Wind: W 3 mph , 6 km/h
Temperature: 28°F , -2°C
Dew Point: 21°F , -6°C
Humidity: 74%
Barometer: 30.28 inHg , 1025.4 hPa
Clouds: Mostly cloudy
Visibility: 10 miles , 16 km
Cloud details: Mostly cloudy 12000 ft
2014/12/20 23:53 KTHV 202353Z AUTO 26003KT 10SM BKN120 M02/M06 A3028 RMK AO2 SLP263 T10221056 10022 21044 51012
KFDK - Frederick, Maryland, USA
Distance from station: W 47mi, 75km
Updated: Sat, 20-Dec-2014 6:47pm EST
Overcast
Overcast
 Wind from calm
Wind: Calm
Temperature: 34°F , 1°C
Dew Point: 21°F , -6°C
Humidity: 60%
Barometer: 30.32 inHg , 1026.8 hPa
Clouds: Overcast
Visibility: 10 miles , 16 km
Cloud details: Overcast 10000 ft
2014/12/20 23:47 KFDK 202347Z 00000KT 10SM OVC100 01/M06 A3032
 
KESN - Easton/Newnam, Maryland, USA
Distance from station: SSE 48mi, 78km
Updated: Sat, 20-Dec-2014 6:55pm EST
Mostly cloudy
Mostly cloudy
 Wind from calm
Wind: Calm
Temperature: 32°F , 0°C
Dew Point: 28°F , -2°C
Humidity: 87%
Barometer: 30.34 inHg , 1027.4 hPa
Clouds: Mostly cloudy
Visibility: 10 miles , 16 km
Cloud details: Mostly cloudy 5000 ft
2014/12/20 23:55 KESN 202355Z 00000KT 10SM BKN050 00/M02 A3034
KDCA - Washington/Natl, Washington D.c., USA
Distance from station: SW 49mi, 79km
Updated: Sat, 20-Dec-2014 7:07pm EST
Overcast
Overcast
 Wind from WNW
Wind: WNW 5 mph , 7 km/h
Temperature: 37°F , 3°C
Wind Chill: 33°F , 1°C
Dew Point: 19°F , -7°C
Humidity: 48%
Barometer: 30.30 inHg , 1026.1 hPa
Clouds: Overcast
Visibility: 10 miles , 16 km
Cloud details: Partly cloudy 8500 ft
Overcast 11000 ft
2014/12/21 00:07 KDCA 210007Z 29004KT 10SM SCT085 OVC110 03/M07 A3030 RMK AO2
 
KLNS - Lancaster, Pennsylvania, USA
Distance from station: N 49mi, 79km
Updated: Sat, 20-Dec-2014 6:53pm EST
Overcast
Overcast
 Wind from NNW
Wind: NNW 3 mph , 6 km/h
Temperature: 30°F , -1°C
Dew Point: 21°F , -6°C
Humidity: 69%
Barometer: 30.28 inHg , 1025.4 hPa
Clouds: Overcast
Visibility: 8 miles , 13 km
Cloud details: Few Clouds 3100 ft
Overcast 12000 ft
2014/12/20 23:53 KLNS 202353Z 34003KT 8SM FEW031 OVC120 M01/M06 A3028 RMK AO2 SLP257 T10111061 10011 21011 51009
KILG - Wilmington, Delaware, USA
Distance from station: ENE 50mi, 81km
Updated: Sat, 20-Dec-2014 6:51pm EST
Clear
Clear
 Wind from calm
Wind: Calm
Temperature: 34°F , 1°C
Dew Point: 21°F , -6°C
Humidity: 60%
Barometer: 30.30 inHg , 1026.1 hPa
Clouds: Clear
Visibility: 10 miles , 16 km
2014/12/20 23:51 KILG 202351Z 00000KT 10SM CLR 01/M06 A3030 RMK AO2 SLP260 T00061061 10028 20000 51008